createdAt,value
2018-09-01T00:00:54.103Z,5.93
2018-09-01T00:03:24.676Z,5.97
2018-09-01T00:05:55.437Z,6.27
2018-09-01T00:08:25.837Z,6.60
2018-09-01T00:10:55.546Z,6.03
2018-09-01T00:13:26.578Z,6.27
2018-09-01T00:15:57.486Z,5.87
2018-09-01T00:18:27.890Z,6.87
2018-09-01T00:20:58.493Z,6.57
2018-09-01T00:23:29.030Z,6.30
2018-09-01T00:25:59.477Z,6.40
2018-09-01T00:28:29.841Z,6.97
2018-09-01T00:31:00.405Z,6.50
2018-09-01T00:33:30.782Z,6.40
2018-09-01T00:36:01.185Z,6.57
2018-09-01T00:38:36.734Z,6.93
2018-09-01T00:41:07.294Z,6.67
2018-09-01T00:43:38.394Z,6.77
2018-09-01T00:46:08.828Z,6.27
2018-09-01T00:48:39.165Z,7.13
2018-09-01T00:51:09.764Z,7.50
2018-09-01T00:53:40.087Z,7.10
2018-09-01T00:56:10.774Z,7.03
2018-09-01T00:58:41.057Z,7.13
2018-09-01T01:01:11.688Z,6.93
2018-09-01T01:03:44.989Z,7.33
2018-09-01T01:06:15.450Z,7.50
2018-09-01T01:08:45.831Z,7.60
2018-09-01T01:11:17.945Z,7.53
2018-09-01T01:13:48.477Z,8.30
2018-09-01T01:16:19.302Z,7.20
2018-09-01T01:18:49.849Z,7.43
2018-09-01T01:21:20.297Z,7.80
2018-09-01T01:23:50.842Z,7.70
2018-09-01T01:26:21.261Z,8.10
2018-09-01T01:28:51.714Z,7.93
2018-09-01T01:31:22.170Z,7.53
2018-09-01T01:33:52.604Z,7.40
2018-09-01T01:36:23.165Z,8.67
2018-09-01T01:38:53.420Z,7.63
2018-09-01T01:41:24.078Z,8.50
2018-09-01T01:43:54.347Z,7.93
2018-09-01T01:46:24.769Z,8.00
2018-09-01T01:48:55.073Z,7.93
2018-09-01T01:51:25.089Z,8.83
2018-09-01T01:53:55.310Z,7.40
2018-09-01T01:56:25.785Z,7.43
2018-09-01T01:58:56.318Z,7.67
2018-09-01T02:01:26.823Z,7.40
2018-09-01T02:03:57.225Z,7.77
2018-09-01T02:06:27.973Z,7.60
2018-09-01T02:08:58.737Z,8.17
2018-09-01T02:11:29.029Z,7.03
2018-09-01T02:13:58.828Z,7.37
2018-09-01T02:16:28.516Z,7.43
2018-09-01T02:18:58.760Z,7.43
2018-09-01T02:21:28.550Z,7.47
2018-09-01T02:23:58.274Z,7.70
2018-09-01T02:26:28.826Z,7.70
2018-09-01T02:28:59.257Z,7.20
2018-09-01T02:31:29.705Z,7.10
2018-09-01T02:34:00.062Z,7.80
2018-09-01T02:36:30.594Z,7.67
2018-09-01T02:39:01.141Z,7.63
2018-09-01T02:41:30.991Z,7.03
2018-09-01T02:44:01.401Z,7.47
2018-09-01T02:46:31.855Z,7.13
2018-09-01T02:49:02.321Z,7.83
2018-09-01T02:51:32.773Z,7.93
2018-09-01T02:54:03.314Z,7.50
2018-09-01T02:56:33.863Z,7.77
2018-09-01T02:59:04.157Z,8.10
2018-09-01T03:01:37.006Z,8.33
2018-09-01T03:04:08.344Z,7.97
2018-09-01T03:06:49.386Z,8.17
2018-09-01T03:09:19.941Z,8.13
2018-09-01T03:11:51.019Z,8.27
2018-09-01T03:14:21.205Z,7.73
2018-09-01T03:16:52.321Z,8.10
2018-09-01T03:19:22.961Z,8.40
2018-09-01T03:21:53.561Z,8.37
2018-09-01T03:24:24.068Z,8.20
2018-09-01T03:26:53.819Z,8.50
2018-09-01T03:29:24.229Z,8.03
2018-09-01T03:31:54.785Z,8.30
2018-09-01T03:34:25.261Z,8.43
2018-09-01T03:36:55.674Z,8.07
2018-09-01T03:39:26.017Z,8.03
2018-09-01T03:41:56.495Z,8.57
2018-09-01T03:44:26.805Z,8.23
2018-09-01T03:46:57.294Z,7.50
2018-09-01T03:49:27.756Z,8.20
2018-09-01T03:51:58.493Z,8.23
2018-09-01T03:54:29.010Z,8.13
2018-09-01T03:56:59.353Z,7.77
2018-09-01T03:59:30.137Z,8.93
2018-09-01T04:02:00.589Z,8.20
2018-09-01T04:04:30.354Z,8.03
2018-09-01T04:07:00.753Z,8.30
2018-09-01T04:09:31.067Z,8.50
2018-09-01T04:12:01.577Z,8.47
2018-09-01T04:14:31.882Z,8.07
2018-09-01T04:17:02.334Z,9.30
2018-09-01T04:19:32.772Z,8.47
2018-09-01T04:22:03.420Z,8.57
2018-09-01T04:24:33.862Z,8.80
2018-09-01T04:27:04.378Z,8.30
2018-09-01T04:29:34.899Z,8.00
2018-09-01T04:32:05.489Z,8.27
2018-09-01T04:34:35.890Z,8.20
2018-09-01T04:37:06.486Z,8.67
2018-09-01T04:39:37.123Z,8.63
2018-09-01T04:42:07.574Z,8.87
2018-09-01T04:44:37.957Z,8.93
2018-09-01T04:47:08.537Z,8.23
2018-09-01T04:49:38.297Z,7.90
2018-09-01T04:52:09.031Z,8.37
2018-09-01T04:54:39.423Z,8.10
2018-09-01T04:57:09.246Z,8.70
2018-09-01T04:59:39.326Z,8.40
2018-09-01T05:02:09.827Z,8.03
2018-09-01T05:04:41.075Z,8.10
2018-09-01T05:07:11.573Z,7.73
2018-09-01T05:09:42.074Z,7.10
2018-09-01T05:12:12.690Z,7.70
2018-09-01T05:14:43.033Z,8.00
2018-09-01T05:17:12.838Z,7.33
2018-09-01T05:19:42.595Z,6.90
2018-09-01T05:22:12.966Z,6.93
2018-09-01T05:24:43.667Z,7.50
2018-09-01T05:27:13.873Z,7.07
2018-09-01T05:29:44.357Z,9.50
2018-09-01T05:32:14.942Z,7.30
2018-09-01T05:34:45.346Z,6.77
2018-09-01T05:37:16.039Z,7.30
2018-09-01T05:39:46.517Z,7.30
2018-09-01T05:42:17.122Z,7.27
2018-09-01T05:44:46.886Z,7.27
2018-09-01T05:47:17.283Z,7.20
2018-09-01T05:49:47.911Z,8.37
2018-09-01T05:52:18.350Z,7.73
2018-09-01T05:54:48.625Z,7.60
2018-09-01T05:57:18.418Z,7.80
2018-09-01T05:59:48.083Z,8.03
2018-09-01T06:02:18.582Z,7.87
2018-09-01T06:04:49.001Z,8.40
2018-09-01T06:07:19.340Z,7.80
2018-09-01T06:09:49.645Z,8.10
2018-09-01T06:12:19.460Z,8.07
2018-09-01T06:14:49.128Z,8.13
2018-09-01T06:17:19.615Z,7.57
2018-09-01T06:19:49.446Z,7.50
2018-09-01T06:22:19.782Z,8.10
2018-09-01T06:24:50.241Z,7.20
2018-09-01T06:27:26.346Z,8.27
2018-09-01T06:29:56.721Z,8.13
2018-09-01T06:32:27.546Z,7.50
2018-09-01T06:34:58.051Z,8.03
2018-09-01T06:37:28.546Z,7.80
2018-09-01T06:39:58.290Z,7.93
2018-09-01T06:42:28.779Z,8.83
2018-09-01T06:44:59.230Z,7.83
2018-09-01T06:47:29.778Z,7.93
2018-09-01T06:50:00.153Z,7.67
2018-09-01T06:52:30.007Z,8.30
2018-09-01T06:55:00.369Z,7.00
2018-09-01T06:57:30.798Z,7.83
2018-09-01T07:00:01.130Z,7.30
2018-09-01T07:02:31.621Z,7.63
2018-09-01T07:05:02.042Z,7.43
2018-09-01T07:07:32.607Z,7.40
2018-09-01T07:10:03.102Z,8.03
2018-09-01T07:12:33.579Z,7.70
2018-09-01T07:15:04.037Z,7.93
2018-09-01T07:17:34.485Z,8.17
2018-09-01T07:20:05.065Z,7.93
2018-09-01T07:22:35.534Z,7.80
2018-09-01T07:25:06.064Z,8.57
2018-09-01T07:27:36.390Z,8.80
2018-09-01T07:30:07.240Z,7.67
2018-09-01T07:32:37.630Z,8.27
2018-09-01T07:35:08.137Z,8.70
2018-09-01T07:37:37.858Z,9.03
2018-09-01T07:40:08.177Z,8.53
2018-09-01T07:42:38.001Z,8.70
2018-09-01T07:45:08.445Z,8.50
2018-09-01T07:47:39.018Z,8.37
2018-09-01T07:50:09.512Z,8.33
2018-09-01T07:52:40.039Z,8.03
2018-09-01T07:55:10.583Z,8.07
2018-09-01T07:57:41.084Z,7.70
2018-09-01T08:00:12.129Z,7.80
2018-09-01T08:02:42.602Z,7.63
2018-09-01T08:05:12.882Z,7.80
2018-09-01T08:07:43.447Z,8.00
2018-09-01T08:10:13.805Z,7.97
2018-09-01T08:12:44.241Z,7.37
2018-09-01T08:15:14.498Z,7.83
2018-09-01T08:17:45.127Z,7.20
2018-09-01T08:20:15.634Z,7.00
2018-09-01T08:22:46.405Z,7.03
2018-09-01T08:25:16.969Z,7.30
2018-09-01T08:27:46.821Z,7.27
2018-09-01T08:30:17.006Z,7.07
2018-09-01T08:32:46.812Z,6.97
2018-09-01T08:35:16.445Z,6.43
2018-09-01T08:37:46.634Z,7.00
2018-09-01T08:40:17.044Z,7.37
2018-09-01T08:42:46.870Z,7.43
2018-09-01T08:45:16.765Z,7.37
2018-09-01T08:47:47.221Z,6.77
2018-09-01T08:50:17.651Z,6.60
2018-09-01T08:52:47.601Z,7.37
2018-09-01T08:55:17.985Z,7.60
2018-09-01T08:57:48.305Z,7.00
2018-09-01T09:00:18.778Z,6.97
2018-09-01T09:02:49.222Z,7.17
2018-09-01T09:05:19.670Z,6.87
2018-09-01T09:07:50.177Z,7.03
2018-09-01T09:10:20.840Z,6.90
2018-09-01T09:12:51.310Z,6.93
2018-09-01T09:15:21.745Z,6.40
2018-09-01T09:17:52.214Z,7.17
2018-09-01T09:20:22.946Z,7.80
2018-09-01T09:22:53.434Z,6.97
2018-09-01T09:25:24.274Z,6.73
2018-09-01T09:27:54.706Z,6.97
2018-09-01T09:30:25.085Z,6.93
2018-09-01T09:32:55.534Z,7.40
2018-09-01T09:35:25.881Z,7.17
2018-09-01T09:37:56.277Z,6.83
2018-09-01T09:40:26.715Z,6.20
2018-09-01T09:42:57.266Z,6.97
2018-09-01T09:45:27.587Z,7.50
2018-09-01T09:47:57.982Z,6.83
2018-09-01T09:50:28.394Z,6.97
2018-09-01T09:52:58.925Z,6.50
2018-09-01T09:55:29.379Z,6.60
2018-09-01T09:57:59.769Z,6.77
2018-09-01T10:00:35.102Z,6.93
2018-09-01T10:03:05.345Z,7.07
2018-09-01T10:05:35.226Z,7.00
2018-09-01T10:08:04.999Z,6.37
2018-09-01T10:10:35.334Z,6.77
2018-09-01T10:13:05.610Z,7.57
2018-09-01T10:15:35.416Z,6.87
2018-09-01T10:18:05.141Z,7.03
2018-09-01T10:20:35.441Z,7.40
2018-09-01T10:23:06.006Z,7.00
2018-09-01T10:25:36.557Z,6.40
2018-09-01T10:28:07.145Z,6.50
2018-09-01T10:30:37.613Z,7.27
2018-09-01T10:33:08.126Z,7.10
2018-09-01T10:35:38.672Z,6.70
2018-09-01T10:38:09.020Z,6.63
2018-09-01T10:40:39.558Z,6.73
2018-09-01T10:43:09.961Z,6.50
2018-09-01T10:45:40.390Z,6.67
2018-09-01T10:48:10.823Z,5.93
2018-09-01T10:50:41.342Z,6.50
2018-09-01T10:53:11.774Z,6.90
2018-09-01T10:55:42.262Z,6.23
2018-09-01T10:58:12.629Z,5.87
2018-09-01T11:00:43.093Z,6.53
2018-09-01T11:03:13.563Z,6.47
2018-09-01T11:05:43.922Z,6.23
2018-09-01T11:08:14.354Z,6.57
2018-09-01T11:10:44.850Z,6.83
2018-09-01T11:13:15.310Z,6.40
2018-09-01T11:15:45.830Z,6.97
2018-09-01T11:18:16.225Z,6.07
2018-09-01T11:20:46.929Z,6.03
2018-09-01T11:23:16.739Z,6.57
2018-09-01T11:25:47.037Z,6.20
2018-09-01T11:28:17.787Z,6.17
2018-09-01T11:30:48.285Z,7.40
2018-09-01T11:33:18.738Z,8.00
2018-09-01T11:35:49.298Z,6.33
2018-09-01T11:38:19.735Z,6.97
2018-09-01T11:40:50.301Z,6.33
2018-09-01T11:43:20.667Z,5.93
2018-09-01T11:45:51.154Z,6.50
2018-09-01T11:48:21.558Z,6.43
2018-09-01T11:50:52.114Z,6.40
2018-09-01T11:53:22.640Z,6.40
2018-09-01T11:55:53.270Z,6.33
2018-09-01T11:58:24.149Z,6.37
2018-09-01T12:00:54.651Z,5.93
2018-09-01T12:03:25.110Z,6.00
2018-09-01T12:05:55.660Z,5.83
2018-09-01T12:08:26.062Z,6.27
2018-09-01T12:10:57.451Z,5.80
2018-09-01T12:13:27.841Z,6.00
2018-09-01T12:15:58.376Z,5.80
2018-09-01T12:18:28.858Z,6.23
2018-09-01T12:20:59.273Z,6.13
2018-09-01T12:23:29.713Z,6.20
2018-09-01T12:26:00.306Z,5.83
2018-09-01T12:28:30.773Z,6.13
2018-09-01T12:31:01.274Z,5.90
2018-09-01T12:33:32.073Z,6.30
2018-09-01T12:36:02.612Z,6.13
2018-09-01T12:38:33.126Z,6.50
2018-09-01T12:41:03.605Z,6.30
2018-09-01T12:43:33.948Z,6.33
2018-09-01T12:46:04.433Z,6.43
2018-09-01T12:48:34.901Z,6.23
2018-09-01T12:51:05.385Z,6.40
2018-09-01T12:53:36.026Z,6.70
2018-09-01T12:56:06.934Z,6.27
2018-09-01T12:58:37.345Z,6.67
2018-09-01T13:01:07.560Z,6.60
2018-09-01T13:03:38.325Z,5.90
2018-09-01T13:06:09.598Z,7.17
2018-09-01T13:08:39.967Z,6.80
2018-09-01T13:11:10.482Z,7.00
2018-09-01T13:13:40.917Z,6.77
2018-09-01T13:16:11.177Z,6.70
2018-09-01T13:18:41.438Z,6.70
2018-09-01T13:21:12.009Z,6.97
2018-09-01T13:23:42.476Z,6.90
2018-09-01T13:26:13.374Z,7.00
2018-09-01T13:28:44.053Z,6.97
2018-09-01T13:31:14.449Z,7.80
2018-09-01T13:33:44.962Z,7.87
2018-09-01T13:36:15.434Z,7.07
2018-09-01T13:38:46.084Z,7.13
2018-09-01T13:41:16.759Z,7.00
2018-09-01T13:43:47.207Z,7.13
2018-09-01T13:46:17.803Z,6.63
2018-09-01T13:48:48.222Z,6.80
2018-09-01T13:51:18.715Z,6.70
2018-09-01T13:53:49.114Z,6.47
2018-09-01T13:56:19.689Z,6.40
2018-09-01T13:58:50.059Z,6.57
2018-09-01T14:01:20.426Z,7.47
2018-09-01T14:03:50.890Z,7.77
2018-09-01T14:06:21.310Z,8.20
2018-09-01T14:08:52.466Z,7.00
2018-09-01T14:11:22.913Z,6.93
2018-09-01T14:13:53.335Z,6.90
2018-09-01T14:16:24.002Z,7.43
2018-09-01T14:18:54.554Z,7.23
2018-09-01T14:21:25.078Z,6.90
2018-09-01T14:23:55.389Z,7.00
2018-09-01T14:26:25.826Z,6.40
2018-09-01T14:28:55.709Z,6.47
2018-09-01T14:31:26.113Z,7.30
2018-09-01T14:33:58.647Z,7.27
2018-09-01T14:36:29.801Z,6.90
2018-09-01T14:39:00.573Z,7.37
2018-09-01T14:41:31.009Z,6.80
2018-09-01T14:44:01.538Z,7.17
2018-09-01T14:46:32.184Z,6.93
2018-09-01T14:49:02.942Z,7.27
2018-09-01T14:51:33.713Z,7.77
2018-09-01T14:54:04.513Z,7.40
2018-09-01T14:56:35.124Z,8.23
2018-09-01T14:59:05.691Z,8.23
2018-09-01T15:01:35.391Z,8.73
2018-09-01T15:04:06.776Z,9.00
2018-09-01T15:06:37.470Z,9.20
2018-09-01T15:09:08.621Z,8.80
2018-09-01T15:11:38.700Z,7.70
2018-09-01T15:14:09.382Z,9.03
2018-09-01T15:16:39.830Z,8.33
2018-09-01T15:19:10.528Z,8.10
2018-09-01T15:21:40.315Z,8.63
2018-09-01T15:24:10.698Z,8.20
2018-09-01T15:26:41.262Z,8.60
2018-09-01T15:29:11.842Z,7.73
2018-09-01T15:31:42.934Z,9.23
2018-09-01T15:34:13.381Z,9.33
2018-09-01T15:36:43.969Z,11.90
2018-09-01T15:39:14.567Z,9.80
2018-09-01T15:41:45.045Z,9.67
2018-09-01T15:44:16.437Z,8.93
2018-09-01T15:46:46.245Z,7.43
2018-09-01T15:49:16.762Z,8.00
2018-09-01T15:51:47.337Z,8.23
2018-09-01T15:54:17.970Z,8.83
2018-09-01T15:56:48.773Z,7.73
2018-09-01T15:59:19.322Z,6.90
2018-09-01T16:01:49.977Z,8.27
2018-09-01T16:04:20.546Z,8.20
2018-09-01T16:06:51.078Z,8.90
2018-09-01T16:09:20.912Z,9.53
2018-09-01T16:11:51.294Z,9.33
2018-09-01T16:14:21.753Z,8.87
2018-09-01T16:16:52.209Z,9.90
2018-09-01T16:19:22.719Z,9.73
2018-09-01T16:21:53.306Z,9.50
2018-09-01T16:24:46.428Z,10.30
2018-09-01T16:27:16.345Z,11.43
2018-09-01T16:38:37.483Z,11.13
2018-09-01T16:41:08.161Z,9.60
2018-09-01T16:43:38.716Z,9.93
2018-09-01T16:46:09.113Z,10.63
2018-09-01T16:48:39.690Z,10.63
2018-09-01T16:51:09.608Z,13.30
2018-09-01T16:53:40.102Z,11.43
2018-09-01T16:56:10.690Z,10.43
2018-09-01T16:58:41.778Z,11.60
2018-09-01T17:01:13.312Z,10.93
2018-09-01T17:03:43.846Z,11.37
2018-09-01T17:06:14.350Z,11.30
2018-09-01T17:08:44.826Z,11.93
2018-09-01T17:11:15.385Z,12.13
2018-09-01T17:13:46.266Z,10.90
2018-09-01T17:16:16.801Z,12.57
2018-09-01T17:19:36.962Z,15.20
2018-09-01T17:22:07.051Z,15.80
2018-09-01T17:24:37.421Z,13.67
2018-09-01T17:27:08.026Z,16.23
2018-09-01T17:29:38.577Z,18.03
2018-09-01T17:32:09.052Z,16.07
2018-09-01T17:34:38.805Z,15.97
2018-09-01T17:37:09.333Z,17.37
2018-09-01T17:39:39.768Z,15.50
2018-09-01T17:42:10.266Z,15.30
2018-09-01T17:44:40.730Z,14.67
2018-09-01T17:47:26.213Z,16.27
2018-09-01T17:49:57.097Z,17.17
2018-09-01T17:52:27.565Z,16.30
2018-09-01T17:54:58.232Z,16.70
2018-09-01T17:57:28.797Z,16.60
2018-09-01T17:59:59.286Z,17.60
2018-09-01T18:02:30.794Z,17.43
2018-09-01T18:05:01.509Z,16.80
2018-09-01T18:07:31.920Z,13.67
2018-09-01T18:10:01.852Z,15.17
2018-09-01T18:12:32.186Z,17.87
2018-09-01T18:15:02.673Z,15.97
2018-09-01T18:17:33.361Z,16.43
2018-09-01T18:20:04.003Z,16.47
2018-09-01T18:22:34.478Z,15.90
2018-09-01T18:25:05.251Z,16.87
2018-09-01T18:27:35.697Z,15.97
2018-09-01T18:30:06.551Z,15.40
2018-09-01T18:32:37.354Z,15.20
2018-09-01T18:35:08.614Z,18.33
2018-09-01T18:37:39.081Z,17.70
2018-09-01T18:40:09.721Z,16.33
2018-09-01T18:42:40.206Z,17.73
2018-09-01T18:45:10.748Z,13.90
2018-09-01T18:47:41.205Z,16.80
2018-09-01T18:50:11.125Z,15.23
2018-09-01T18:52:41.763Z,15.13
2018-09-01T18:55:12.230Z,17.13
2018-09-01T18:57:42.725Z,14.60
2018-09-01T19:00:13.315Z,14.47
2018-09-01T19:02:43.931Z,13.70
2018-09-01T19:05:14.882Z,14.63
2018-09-01T19:07:45.410Z,12.27
2018-09-01T19:10:16.034Z,13.70
2018-09-01T19:12:46.616Z,12.70
2018-09-01T19:15:17.103Z,12.67
2018-09-01T19:17:47.583Z,14.67
2018-09-01T19:20:18.151Z,13.03
2018-09-01T19:22:48.930Z,14.03
2018-09-01T19:25:19.500Z,13.20
2018-09-01T19:27:50.294Z,14.40
2018-09-01T19:30:21.074Z,12.40
2018-09-01T19:32:51.761Z,12.43
2018-09-01T19:35:22.374Z,12.60
2018-09-01T19:37:53.098Z,13.40
2018-09-01T19:40:23.465Z,13.07
2018-09-01T19:42:54.024Z,13.50
2018-09-01T19:45:24.762Z,12.40
2018-09-01T19:47:55.349Z,13.37
2018-09-01T19:50:25.958Z,11.03
2018-09-01T19:52:56.664Z,12.50
2018-09-01T19:55:27.322Z,13.13
2018-09-01T19:57:57.343Z,11.23
2018-09-01T20:00:28.455Z,10.63
2018-09-01T20:02:58.968Z,12.63
2018-09-01T20:05:29.869Z,11.90
2018-09-01T20:07:59.649Z,11.80
2018-09-01T20:10:29.504Z,12.17
2018-09-01T20:12:59.940Z,11.77
2018-09-01T20:15:30.738Z,11.57
2018-09-01T20:18:01.342Z,11.60
2018-09-01T20:20:31.870Z,9.60
2018-09-01T20:23:02.485Z,12.40
2018-09-01T20:25:33.031Z,13.07
2018-09-01T20:28:03.633Z,13.27
2018-09-01T20:30:34.157Z,13.20
2018-09-01T20:33:04.607Z,14.83
2018-09-01T20:35:39.930Z,12.90
2018-09-01T20:38:10.829Z,14.10
2018-09-01T20:40:41.584Z,12.60
2018-09-01T20:43:12.150Z,13.37
2018-09-01T20:45:42.804Z,12.63
2018-09-01T20:48:13.272Z,11.27
2018-09-01T20:50:44.819Z,12.80
2018-09-01T20:53:15.534Z,13.63
2018-09-01T20:55:46.809Z,12.13
2018-09-01T20:58:17.825Z,12.20
2018-09-01T21:00:49.606Z,13.33
2018-09-01T21:03:20.383Z,13.30
2018-09-01T21:05:51.543Z,11.33
2018-09-01T21:08:21.656Z,11.07
2018-09-01T21:10:52.306Z,12.70
2018-09-01T21:13:23.679Z,13.33
2018-09-01T21:15:54.278Z,12.70
2018-09-01T21:18:24.839Z,12.70
2018-09-01T21:20:55.409Z,12.83
2018-09-01T21:23:26.046Z,11.20
2018-09-01T21:25:56.541Z,13.00
2018-09-01T21:28:27.261Z,12.63
2018-09-01T21:30:57.829Z,10.77
2018-09-01T21:33:28.359Z,14.13
2018-09-01T21:35:58.922Z,13.53
2018-09-01T21:38:29.408Z,12.20
2018-09-01T21:41:00.021Z,12.80
2018-09-01T21:43:30.682Z,12.80
2018-09-01T21:46:01.198Z,14.50
2018-09-01T21:48:31.917Z,14.43
2018-09-01T21:51:02.441Z,13.87
2018-09-01T21:53:34.084Z,13.43
2018-09-01T21:56:04.817Z,13.67
2018-09-01T21:58:35.456Z,11.87
2018-09-01T22:01:10.821Z,14.43
2018-09-01T22:03:46.241Z,13.63
2018-09-01T22:06:18.129Z,12.03
2018-09-01T22:08:48.973Z,13.83
2018-09-01T22:11:19.864Z,14.00
2018-09-01T22:13:50.447Z,15.03
2018-09-01T22:16:21.030Z,12.07
2018-09-01T22:18:51.209Z,13.53
2018-09-01T22:21:21.814Z,13.73
2018-09-01T22:23:52.184Z,12.77
2018-09-01T22:26:22.752Z,13.43
2018-09-01T22:28:53.302Z,14.10
2018-09-01T22:31:23.928Z,12.97
2018-09-01T22:33:54.945Z,12.67
2018-09-01T22:36:25.499Z,12.90
2018-09-01T22:38:56.249Z,12.27
2018-09-01T22:41:26.762Z,13.77
2018-09-01T22:43:57.393Z,11.13
2018-09-01T22:46:28.133Z,10.53
2018-09-01T22:48:58.591Z,10.27
2018-09-01T22:51:28.635Z,11.13
2018-09-01T22:53:59.152Z,11.57
2018-09-01T22:56:29.645Z,11.90
2018-09-01T22:59:00.034Z,10.93
2018-09-01T23:01:30.525Z,10.87
2018-09-01T23:04:00.372Z,11.00
2018-09-01T23:06:30.831Z,11.93
2018-09-01T23:09:01.320Z,10.93
2018-09-01T23:11:31.968Z,11.33
2018-09-01T23:14:02.589Z,12.20
2018-09-01T23:16:33.137Z,12.10
2018-09-01T23:19:03.670Z,11.87
2018-09-01T23:21:34.085Z,11.63
2018-09-01T23:24:04.628Z,11.77
2018-09-01T23:26:35.263Z,11.17
2018-09-01T23:29:05.805Z,13.00
2018-09-01T23:31:36.682Z,12.67
2018-09-01T23:34:07.153Z,12.97
2018-09-01T23:36:37.671Z,12.47
2018-09-01T23:39:10.010Z,11.67
2018-09-01T23:41:40.895Z,11.53
2018-09-01T23:44:11.458Z,11.30
2018-09-01T23:46:42.021Z,11.67
2018-09-01T23:49:12.482Z,10.67
2018-09-01T23:51:42.993Z,10.63
2018-09-01T23:54:13.299Z,10.40
2018-09-01T23:56:43.873Z,10.27
2018-09-01T23:59:14.446Z,9.97
